createdAt,value
2018-09-11T00:00:09.485Z,52.33
2018-09-11T00:02:37.771Z,52.44
2018-09-11T00:05:06.143Z,52.50
2018-09-11T00:07:34.470Z,51.64
2018-09-11T00:10:02.762Z,51.55
2018-09-11T00:12:31.005Z,51.83
2018-09-11T00:14:59.309Z,51.56
2018-09-11T00:17:27.572Z,51.94
2018-09-11T00:19:55.841Z,52.38
2018-09-11T00:22:24.101Z,52.40
2018-09-11T00:24:52.518Z,51.80
2018-09-11T00:27:21.993Z,51.74
2018-09-11T00:29:50.406Z,51.75
2018-09-11T00:32:18.682Z,51.88
2018-09-11T00:34:46.958Z,52.70
2018-09-11T00:37:15.266Z,52.23
2018-09-11T00:39:43.522Z,52.58
2018-09-11T00:42:11.780Z,51.53
2018-09-11T00:44:40.134Z,51.75
2018-09-11T00:47:09.006Z,52.24
2018-09-11T00:49:37.298Z,52.59
2018-09-11T00:52:05.579Z,51.47
2018-09-11T00:54:33.878Z,51.47
2018-09-11T00:57:02.159Z,51.63
2018-09-11T00:59:30.418Z,51.46
2018-09-11T01:01:58.776Z,51.49
2018-09-11T01:04:27.107Z,51.60
2018-09-11T01:06:55.450Z,52.33
2018-09-11T01:09:24.289Z,51.50
2018-09-11T01:11:52.555Z,51.63
2018-09-11T01:14:20.958Z,51.60
2018-09-11T01:16:49.354Z,52.31
2018-09-11T01:19:17.728Z,51.73
2018-09-11T01:21:46.015Z,52.51
2018-09-11T01:24:14.378Z,51.45
2018-09-11T01:26:42.694Z,51.91
2018-09-11T01:29:10.986Z,52.34
2018-09-11T01:31:39.250Z,52.21
2018-09-11T01:34:07.762Z,52.11
2018-09-11T01:36:36.118Z,51.44
2018-09-11T01:39:06.326Z,52.25
2018-09-11T01:41:34.711Z,51.33
2018-09-11T01:44:03.022Z,51.42
2018-09-11T01:46:31.325Z,52.22
2018-09-11T01:48:59.623Z,51.74
2018-09-11T01:51:27.881Z,52.18
2018-09-11T01:53:57.206Z,51.78
2018-09-11T01:56:25.475Z,51.90
2018-09-11T01:58:53.954Z,51.00
2018-09-11T02:01:22.248Z,51.76
2018-09-11T02:03:50.705Z,52.17
2018-09-11T02:06:19.006Z,51.38
2018-09-11T02:08:47.262Z,51.23
2018-09-11T02:11:15.642Z,51.60
2018-09-11T02:13:43.953Z,51.13
2018-09-11T02:16:12.306Z,51.35
2018-09-11T02:18:40.558Z,51.31
2018-09-11T02:21:08.854Z,52.15
2018-09-11T02:23:37.270Z,51.71
2018-09-11T02:26:05.549Z,52.43
2018-09-11T02:28:33.898Z,51.30
2018-09-11T02:31:02.158Z,52.06
2018-09-11T02:33:30.450Z,51.07
2018-09-11T02:35:59.804Z,52.03
2018-09-11T02:38:28.165Z,52.42
2018-09-11T02:40:56.499Z,51.87
2018-09-11T02:43:24.801Z,52.27
2018-09-11T02:45:53.112Z,51.78
2018-09-11T02:48:21.375Z,51.61
2018-09-11T02:50:49.637Z,51.40
2018-09-11T02:53:17.950Z,52.06
2018-09-11T02:55:46.250Z,50.98
2018-09-11T02:58:14.642Z,51.32
2018-09-11T03:00:42.927Z,51.88
2018-09-11T03:03:11.307Z,51.23
2018-09-11T03:05:39.650Z,51.50
2018-09-11T03:08:07.926Z,51.99
2018-09-11T03:10:36.242Z,52.24
2018-09-11T03:13:04.550Z,52.69
2018-09-11T03:15:33.394Z,52.13
2018-09-11T03:18:01.634Z,52.74
2018-09-11T03:20:29.922Z,52.89
2018-09-11T03:22:58.265Z,52.97
2018-09-11T03:25:26.610Z,52.81
2018-09-11T03:27:54.858Z,53.07
2018-09-11T03:30:23.147Z,53.09
2018-09-11T03:32:51.478Z,52.92
2018-09-11T03:35:19.790Z,52.43
2018-09-11T03:37:48.051Z,53.20
2018-09-11T03:40:16.334Z,53.17
2018-09-11T03:42:44.656Z,52.44
2018-09-11T03:45:13.015Z,52.61
2018-09-11T03:47:41.254Z,52.46
2018-09-11T03:50:09.543Z,52.54
2018-09-11T03:52:37.919Z,53.22
2018-09-11T03:55:06.666Z,53.37
2018-09-11T03:57:35.337Z,52.95
2018-09-11T04:00:03.890Z,53.34
2018-09-11T04:02:32.239Z,53.22
2018-09-11T04:05:00.515Z,53.07
2018-09-11T04:07:28.810Z,53.28
2018-09-11T04:09:57.091Z,53.32
2018-09-11T04:12:25.491Z,53.70
2018-09-11T04:14:53.851Z,52.86
2018-09-11T04:17:26.543Z,53.67
2018-09-11T04:19:54.847Z,53.56
2018-09-11T04:22:23.154Z,53.66
2018-09-11T04:24:51.408Z,53.41
2018-09-11T04:27:19.673Z,52.89
2018-09-11T04:29:47.926Z,53.45
2018-09-11T04:32:16.191Z,53.05
2018-09-11T04:34:44.479Z,53.55
2018-09-11T04:37:12.739Z,54.02
2018-09-11T04:39:40.999Z,53.19
2018-09-11T04:42:09.294Z,53.89
2018-09-11T04:44:37.547Z,53.40
2018-09-11T04:47:06.115Z,53.68
2018-09-11T04:49:34.367Z,53.79
2018-09-11T04:52:02.636Z,53.62
2018-09-11T04:54:30.907Z,53.47
2018-09-11T04:56:59.270Z,54.23
2018-09-11T04:59:27.551Z,53.82
2018-09-11T05:01:55.853Z,53.34
2018-09-11T05:04:24.158Z,53.67
2018-09-11T05:06:52.766Z,53.37
2018-09-11T05:09:21.015Z,53.74
2018-09-11T05:11:49.306Z,54.19
2018-09-11T05:14:17.555Z,53.19
2018-09-11T05:16:45.822Z,53.93
2018-09-11T05:19:14.380Z,53.30
2018-09-11T05:21:42.618Z,53.28
2018-09-11T05:24:10.926Z,53.05
2018-09-11T05:26:39.307Z,52.73
2018-09-11T05:29:07.770Z,52.28
2018-09-11T05:31:36.043Z,52.71
2018-09-11T05:34:04.298Z,53.17
2018-09-11T05:36:32.562Z,53.42
2018-09-11T05:39:00.918Z,53.29
2018-09-11T05:41:29.230Z,52.53
2018-09-11T05:43:57.470Z,53.21
2018-09-11T05:46:25.795Z,53.12
2018-09-11T05:48:54.114Z,51.86
2018-09-11T05:51:22.431Z,52.25
2018-09-11T05:53:50.713Z,52.48
2018-09-11T05:56:18.991Z,52.61
2018-09-11T05:58:47.313Z,53.00
2018-09-11T06:01:15.710Z,52.02
2018-09-11T06:03:44.056Z,52.58
2018-09-11T06:06:12.407Z,52.34
2018-09-11T06:08:40.707Z,52.46
2018-09-11T06:11:09.165Z,52.13
2018-09-11T06:13:37.469Z,52.80
2018-09-11T06:16:05.859Z,52.21
2018-09-11T06:18:34.182Z,52.20
2018-09-11T06:21:02.526Z,52.25
2018-09-11T06:23:30.903Z,53.01
2018-09-11T06:25:59.243Z,52.50
2018-09-11T06:28:27.570Z,51.76
2018-09-11T06:30:55.891Z,52.47
2018-09-11T06:33:24.206Z,52.59
2018-09-11T06:35:52.583Z,52.12
2018-09-11T06:38:21.022Z,52.41
2018-09-11T06:40:49.350Z,51.85
2018-09-11T06:43:17.692Z,51.83
2018-09-11T06:45:47.158Z,52.24
2018-09-11T06:48:15.486Z,51.86
2018-09-11T06:50:43.778Z,52.12
2018-09-11T06:53:12.126Z,52.58
2018-09-11T06:55:40.442Z,52.51
2018-09-11T06:58:08.731Z,51.69
2018-09-11T07:00:37.019Z,51.98
2018-09-11T07:03:05.514Z,51.94
2018-09-11T07:05:33.794Z,51.81
2018-09-11T07:08:02.102Z,52.62
2018-09-11T07:10:30.417Z,52.42
2018-09-11T07:12:58.728Z,52.30
2018-09-11T07:15:27.011Z,51.69
2018-09-11T07:17:55.406Z,52.10
2018-09-11T07:20:23.788Z,52.14
2018-09-11T07:22:51.951Z,51.74
2018-09-11T07:25:20.309Z,51.78
2018-09-11T07:27:49.483Z,52.16
2018-09-11T07:30:17.837Z,52.04
2018-09-11T07:32:46.067Z,52.40
2018-09-11T07:35:14.342Z,51.49
2018-09-11T07:37:42.676Z,51.61
2018-09-11T07:40:10.939Z,52.38
2018-09-11T07:42:39.244Z,52.31
2018-09-11T07:45:07.595Z,52.20
2018-09-11T07:47:35.931Z,52.21
2018-09-11T07:50:04.230Z,52.12
2018-09-11T07:52:32.545Z,51.45
2018-09-11T07:55:00.827Z,52.21
2018-09-11T07:57:29.193Z,52.41
2018-09-11T07:59:57.384Z,51.57
2018-09-11T08:02:25.683Z,52.04
2018-09-11T08:04:53.933Z,51.56
2018-09-11T08:07:22.215Z,51.50
2018-09-11T08:09:51.043Z,51.40
2018-09-11T08:12:19.340Z,52.24
2018-09-11T08:14:47.631Z,51.78
2018-09-11T08:17:15.899Z,51.44
2018-09-11T08:19:44.215Z,52.11
2018-09-11T08:22:12.479Z,51.58
2018-09-11T08:24:40.746Z,51.15
2018-09-11T08:27:09.003Z,51.22
2018-09-11T08:29:37.311Z,51.76
2018-09-11T08:32:05.594Z,52.01
2018-09-11T08:34:33.886Z,51.28
2018-09-11T08:37:02.199Z,51.79
2018-09-11T08:39:30.488Z,51.89
2018-09-11T08:41:58.747Z,51.92
2018-09-11T08:44:27.077Z,51.03
2018-09-11T08:46:55.471Z,51.80
2018-09-11T08:50:48.426Z,51.50
2018-09-11T08:53:16.726Z,50.93
2018-09-11T08:55:44.998Z,51.48
2018-09-11T08:58:13.288Z,50.59
2018-09-11T09:00:41.631Z,50.88
2018-09-11T09:03:09.937Z,51.26
2018-09-11T09:05:38.303Z,51.49
2018-09-11T09:08:06.699Z,50.67
2018-09-11T09:10:34.986Z,51.49
2018-09-11T09:13:03.302Z,51.51
2018-09-11T09:15:31.623Z,50.26
2018-09-11T09:17:59.918Z,50.95
2018-09-11T09:20:28.218Z,50.86
2018-09-11T09:22:56.514Z,50.65
2018-09-11T09:25:24.817Z,51.22
2018-09-11T09:27:53.129Z,51.04
2018-09-11T09:30:21.458Z,50.46
2018-09-11T09:32:49.734Z,50.71
2018-09-11T09:35:18.034Z,51.09
2018-09-11T09:37:46.426Z,51.06
2018-09-11T09:40:14.855Z,50.68
2018-09-11T09:42:43.171Z,50.26
2018-09-11T09:45:11.504Z,50.96
2018-09-11T09:47:39.822Z,50.96
2018-09-11T09:50:08.224Z,50.09
2018-09-11T09:52:36.609Z,50.72
2018-09-11T09:55:04.941Z,50.82
2018-09-11T09:57:33.359Z,50.56
2018-09-11T10:00:01.679Z,50.39
2018-09-11T10:02:30.915Z,49.96
2018-09-11T10:04:59.262Z,50.49
2018-09-11T10:07:27.458Z,50.05
2018-09-11T10:09:55.829Z,50.58
2018-09-11T10:12:24.155Z,50.10
2018-09-11T10:14:52.431Z,49.66
2018-09-11T10:17:20.770Z,50.07
2018-09-11T10:19:49.047Z,49.61
2018-09-11T10:22:17.402Z,50.29
2018-09-11T10:24:45.728Z,50.01
2018-09-11T10:27:14.171Z,50.27
2018-09-11T10:29:42.510Z,49.75
2018-09-11T10:32:10.810Z,49.84
2018-09-11T10:34:39.127Z,49.42
2018-09-11T10:37:07.493Z,49.39
2018-09-11T10:39:35.764Z,50.18
2018-09-11T10:42:04.175Z,50.06
2018-09-11T10:44:32.483Z,50.17
2018-09-11T10:47:00.807Z,50.45
2018-09-11T10:49:29.094Z,52.42
2018-09-11T10:51:58.370Z,54.71
2018-09-11T10:54:26.643Z,54.94
2018-09-11T10:56:54.906Z,53.50
2018-09-11T10:59:23.190Z,53.75
2018-09-11T11:01:51.547Z,53.62
2018-09-11T11:04:19.917Z,53.37
2018-09-11T11:06:48.207Z,53.54
2018-09-11T11:09:16.479Z,52.94
2018-09-11T11:11:44.743Z,52.48
2018-09-11T11:14:13.023Z,53.09
2018-09-11T11:16:41.301Z,52.25
2018-09-11T11:19:09.567Z,51.90
2018-09-11T11:21:37.887Z,51.95
2018-09-11T11:24:06.193Z,51.69
2018-09-11T11:26:34.479Z,52.34
2018-09-11T11:29:02.791Z,52.10
2018-09-11T11:31:31.088Z,52.05
2018-09-11T11:33:59.362Z,52.09
2018-09-11T11:36:27.717Z,51.92
2018-09-11T11:38:55.894Z,51.74
2018-09-11T11:41:24.167Z,51.67
2018-09-11T11:43:52.459Z,50.98
2018-09-11T11:46:20.735Z,51.92
2018-09-11T11:48:48.985Z,50.75
2018-09-11T11:51:17.331Z,50.54
2018-09-11T11:53:45.638Z,50.75
2018-09-11T11:56:13.931Z,50.62
2018-09-11T11:58:42.208Z,50.34
2018-09-11T12:01:10.790Z,50.80
2018-09-11T12:03:39.087Z,50.26
2018-09-11T12:06:07.403Z,50.16
2018-09-11T12:08:35.687Z,50.13
2018-09-11T12:11:04.089Z,50.94
2018-09-11T12:13:32.363Z,50.10
2018-09-11T12:16:00.668Z,50.69
2018-09-11T12:18:28.939Z,49.87
2018-09-11T12:20:57.230Z,50.68
2018-09-11T12:23:25.502Z,50.55
2018-09-11T12:25:53.795Z,50.21
2018-09-11T12:28:22.098Z,50.23
2018-09-11T12:30:50.491Z,49.73
2018-09-11T12:33:18.850Z,50.29
2018-09-11T12:35:47.166Z,49.49
2018-09-11T12:38:15.478Z,49.69
2018-09-11T12:40:43.984Z,50.27
2018-09-11T12:43:12.286Z,50.27
2018-09-11T12:45:40.596Z,49.68
2018-09-11T12:48:09.250Z,50.10
2018-09-11T12:50:37.279Z,50.16
2018-09-11T12:53:05.726Z,50.19
2018-09-11T12:55:34.023Z,50.05
2018-09-11T12:58:02.319Z,49.72
2018-09-11T13:00:30.682Z,50.11
2018-09-11T13:02:58.984Z,50.17
2018-09-11T13:05:27.315Z,49.25
2018-09-11T13:07:55.619Z,50.11
2018-09-11T13:10:23.999Z,49.72
2018-09-11T13:12:52.318Z,49.76
2018-09-11T13:15:20.643Z,50.20
2018-09-11T13:17:49.025Z,49.48
2018-09-11T13:20:17.314Z,50.06
2018-09-11T13:22:45.618Z,50.13
2018-09-11T13:25:13.934Z,49.20
2018-09-11T13:27:42.262Z,50.07
2018-09-11T13:30:10.669Z,50.03
2018-09-11T13:32:39.003Z,49.93
2018-09-11T13:35:07.358Z,50.02
2018-09-11T13:37:35.824Z,49.79
2018-09-11T13:40:04.291Z,49.91
2018-09-11T13:42:32.705Z,49.19
2018-09-11T13:45:01.012Z,49.79
2018-09-11T13:47:29.507Z,49.31
2018-09-11T13:49:57.903Z,49.16
2018-09-11T13:52:26.242Z,48.95
2018-09-11T13:54:54.578Z,48.83
2018-09-11T13:57:22.862Z,48.67
2018-09-11T13:59:51.167Z,49.56
2018-09-11T14:02:19.923Z,49.65
2018-09-11T14:04:48.222Z,49.43
2018-09-11T14:07:16.623Z,48.84
2018-09-11T14:09:44.919Z,49.24
2018-09-11T14:12:13.235Z,49.55
2018-09-11T14:14:41.555Z,49.53
2018-09-11T14:17:09.874Z,48.60
2018-09-11T14:19:38.199Z,48.57
2018-09-11T14:22:06.868Z,49.45
2018-09-11T14:24:35.214Z,49.43
2018-09-11T14:27:03.534Z,49.07
2018-09-11T14:29:31.904Z,48.96
2018-09-11T14:32:00.268Z,48.90
2018-09-11T14:34:28.860Z,48.49
2018-09-11T14:36:57.263Z,47.93
2018-09-11T14:39:25.714Z,47.64
2018-09-11T14:41:53.998Z,46.77
2018-09-11T14:44:23.048Z,46.91
2018-09-11T14:46:51.391Z,46.22
2018-09-11T14:49:19.843Z,46.70
2018-09-11T14:51:48.463Z,45.96
2018-09-11T14:54:16.943Z,46.19
2018-09-11T14:56:45.422Z,45.20
2018-09-11T14:59:13.753Z,46.10
2018-09-11T15:01:42.170Z,44.95
2018-09-11T15:04:10.549Z,45.47
2018-09-11T15:06:39.138Z,44.82
2018-09-11T15:09:09.172Z,45.05
2018-09-11T15:11:37.614Z,44.89
2018-09-11T15:14:06.106Z,44.87
2018-09-11T15:16:34.524Z,44.72
2018-09-11T15:19:03.011Z,45.31
2018-09-11T15:21:31.439Z,44.88
2018-09-11T15:23:59.855Z,45.61
2018-09-11T15:26:28.163Z,44.78
2018-09-11T15:28:56.646Z,45.26
2018-09-11T15:31:25.018Z,44.88
2018-09-11T15:33:53.491Z,45.37
2018-09-11T15:36:21.807Z,44.93
2018-09-11T15:38:50.267Z,45.76
2018-09-11T15:41:18.830Z,45.75
2018-09-11T15:43:47.307Z,45.25
2018-09-11T15:46:15.587Z,45.41
2018-09-11T15:48:43.955Z,45.38
2018-09-11T15:51:12.246Z,46.07
2018-09-11T15:53:40.642Z,47.26
2018-09-11T15:56:09.138Z,47.02
2018-09-11T15:58:37.531Z,47.25
2018-09-11T16:01:06.031Z,47.71
2018-09-11T16:03:34.507Z,47.73
2018-09-11T16:06:02.839Z,47.84
2018-09-11T16:08:31.271Z,47.14
2018-09-11T16:10:59.887Z,46.79
2018-09-11T16:13:28.208Z,46.72
2018-09-11T16:15:56.628Z,46.90
2018-09-11T16:18:25.334Z,46.65
2018-09-11T16:20:53.817Z,47.38
2018-09-11T16:23:22.251Z,46.64
2018-09-11T16:25:50.628Z,47.49
2018-09-11T16:28:19.018Z,46.93
2018-09-11T16:30:47.351Z,47.06
2018-09-11T16:33:15.918Z,47.51
2018-09-11T16:35:44.486Z,46.65
2018-09-11T16:38:12.903Z,46.51
2018-09-11T16:40:41.187Z,47.30
2018-09-11T16:43:09.558Z,47.11
2018-09-11T16:45:37.914Z,46.66
2018-09-11T16:48:06.206Z,46.77
2018-09-11T16:50:34.481Z,46.71
2018-09-11T16:53:02.854Z,47.76
2018-09-11T16:55:31.158Z,49.64
2018-09-11T16:57:59.490Z,49.96
2018-09-11T17:00:27.811Z,52.27
2018-09-11T17:02:56.522Z,51.04
2018-09-11T17:05:24.815Z,50.76
2018-09-11T17:07:53.098Z,49.75
2018-09-11T17:10:21.402Z,50.04
2018-09-11T17:12:49.690Z,48.83
2018-09-11T17:15:17.967Z,49.26
2018-09-11T17:17:46.315Z,48.59
2018-09-11T17:20:14.875Z,48.64
2018-09-11T17:22:43.180Z,48.29
2018-09-11T17:25:11.522Z,48.11
2018-09-11T17:27:39.958Z,48.51
2018-09-11T17:30:08.339Z,48.06
2018-09-11T17:32:36.685Z,47.96
2018-09-11T17:35:05.267Z,48.19
2018-09-11T17:37:33.551Z,47.82
2018-09-11T17:40:02.005Z,48.31
2018-09-11T17:42:30.465Z,48.47
2018-09-11T17:44:58.824Z,48.58
2018-09-11T17:47:27.205Z,48.53
2018-09-11T17:49:55.583Z,47.61
2018-09-11T17:52:23.992Z,48.30
2018-09-11T17:54:52.415Z,47.42
2018-09-11T17:57:20.817Z,48.09
2018-09-11T17:59:49.260Z,47.45
2018-09-11T18:02:17.576Z,48.17
2018-09-11T18:04:45.959Z,47.41
2018-09-11T18:07:14.377Z,48.09
2018-09-11T18:09:42.759Z,47.47
2018-09-11T18:12:11.123Z,47.54
2018-09-11T18:14:39.478Z,47.98
2018-09-11T18:17:08.808Z,47.39
2018-09-11T18:19:37.123Z,47.39
2018-09-11T18:22:05.539Z,47.58
2018-09-11T18:24:33.999Z,47.42
2018-09-11T18:27:02.355Z,47.26
2018-09-11T18:29:30.808Z,47.57
2018-09-11T18:31:59.130Z,47.77
2018-09-11T18:34:27.547Z,47.25
2018-09-11T18:36:55.887Z,47.29
2018-09-11T18:39:24.190Z,47.39
2018-09-11T18:41:52.471Z,47.32
2018-09-11T18:44:20.868Z,47.23
2018-09-11T18:46:49.218Z,46.67
2018-09-11T18:49:17.555Z,46.58
2018-09-11T18:51:46.018Z,46.65
2018-09-11T18:54:14.303Z,47.27
2018-09-11T18:56:42.589Z,46.76
2018-09-11T18:59:10.855Z,47.16
2018-09-11T19:01:39.301Z,46.92
2018-09-11T19:04:07.647Z,45.91
2018-09-11T19:06:35.994Z,46.30
2018-09-11T19:09:06.153Z,46.54
2018-09-11T19:11:34.513Z,46.48
2018-09-11T19:14:02.832Z,46.94
2018-09-11T19:16:31.278Z,46.92
2018-09-11T19:18:59.674Z,46.18
2018-09-11T19:21:27.965Z,46.20
2018-09-11T19:23:56.260Z,46.50
2018-09-11T19:26:24.606Z,46.28
2018-09-11T19:28:53.003Z,46.26
2018-09-11T19:31:21.407Z,47.07
2018-09-11T19:33:49.771Z,47.17
2018-09-11T19:36:18.155Z,46.77
2018-09-11T19:38:46.471Z,46.25
2018-09-11T19:41:15.591Z,46.30
2018-09-11T19:43:44.038Z,47.15
2018-09-11T19:46:12.474Z,46.48
2018-09-11T19:48:40.791Z,46.87
2018-09-11T19:51:09.195Z,47.00
2018-09-11T19:53:37.550Z,46.56
2018-09-11T19:56:05.998Z,47.17
2018-09-11T19:58:34.319Z,46.32
2018-09-11T20:01:02.659Z,46.21
2018-09-11T20:03:31.132Z,46.35
2018-09-11T20:05:59.489Z,46.02
2018-09-11T20:08:27.847Z,47.00
2018-09-11T20:10:56.284Z,46.29
2018-09-11T20:13:24.669Z,47.44
2018-09-11T20:15:53.014Z,47.00
2018-09-11T20:18:21.334Z,46.17
2018-09-11T20:20:49.723Z,46.28
2018-09-11T20:23:19.020Z,46.63
2018-09-11T20:25:47.411Z,46.40
2018-09-11T20:28:15.831Z,46.34
2018-09-11T20:30:44.188Z,46.62
2018-09-11T20:33:12.499Z,46.56
2018-09-11T20:35:40.818Z,46.52
2018-09-11T20:38:09.164Z,47.29
2018-09-11T20:40:37.554Z,47.33
2018-09-11T20:43:05.996Z,47.14
2018-09-11T20:45:34.383Z,46.61
2018-09-11T20:48:02.727Z,46.60
2018-09-11T20:50:31.019Z,46.96
2018-09-11T20:52:59.362Z,47.26
2018-09-11T20:55:27.747Z,46.96
2018-09-11T20:57:56.139Z,47.26
2018-09-11T21:00:24.435Z,47.37
2018-09-11T21:02:52.732Z,46.57
2018-09-11T21:05:21.464Z,47.47
2018-09-11T21:07:49.750Z,46.47
2018-09-11T21:10:18.083Z,47.25
2018-09-11T21:12:46.381Z,46.78
2018-09-11T21:15:14.718Z,47.04
2018-09-11T21:17:43.030Z,46.66
2018-09-11T21:20:11.323Z,47.38
2018-09-11T21:22:39.644Z,46.59
2018-09-11T21:25:07.953Z,46.57
2018-09-11T21:27:36.276Z,47.37
2018-09-11T21:30:04.767Z,47.34
2018-09-11T21:32:33.107Z,47.17
2018-09-11T21:35:01.405Z,46.50
2018-09-11T21:37:29.762Z,47.27
2018-09-11T21:39:58.034Z,47.35
2018-09-11T21:42:26.487Z,47.22
2018-09-11T21:44:54.765Z,46.93
2018-09-11T21:47:23.092Z,47.33
2018-09-11T21:49:51.435Z,47.10
2018-09-11T21:52:19.830Z,47.45
2018-09-11T21:54:48.151Z,47.04
2018-09-11T21:57:16.482Z,47.54
2018-09-11T21:59:44.822Z,47.50
2018-09-11T22:02:13.140Z,47.45
2018-09-11T22:04:41.446Z,47.67
2018-09-11T22:07:09.827Z,46.73
2018-09-11T22:09:38.195Z,47.13
2018-09-11T22:12:06.575Z,47.18
2018-09-11T22:14:34.878Z,46.85
2018-09-11T22:17:03.254Z,47.19
2018-09-11T22:19:31.535Z,47.30
2018-09-11T22:21:59.860Z,46.97
2018-09-11T22:24:28.126Z,46.94
2018-09-11T22:26:56.424Z,46.86
2018-09-11T22:29:24.806Z,47.54
2018-09-11T22:31:53.114Z,47.79
2018-09-11T22:34:21.407Z,47.11
2018-09-11T22:36:49.706Z,47.01
2018-09-11T22:39:17.990Z,47.00
2018-09-11T22:41:46.327Z,47.78
2018-09-11T22:44:14.621Z,47.75
2018-09-11T22:46:42.942Z,47.67
2018-09-11T22:49:11.230Z,47.52
2018-09-11T22:51:39.570Z,47.76
2018-09-11T22:54:07.859Z,47.04
2018-09-11T22:56:36.211Z,47.02
2018-09-11T22:59:04.548Z,47.85
2018-09-11T23:01:32.815Z,47.47
2018-09-11T23:04:01.142Z,47.77
2018-09-11T23:06:29.526Z,47.77
2018-09-11T23:08:57.786Z,47.36
2018-09-11T23:11:26.092Z,47.97
2018-09-11T23:13:54.390Z,47.90
2018-09-11T23:16:22.673Z,47.02
2018-09-11T23:18:50.926Z,47.92
2018-09-11T23:21:19.211Z,47.88
2018-09-11T23:23:47.506Z,47.59
2018-09-11T23:26:15.823Z,48.00
2018-09-11T23:28:44.079Z,48.00
2018-09-11T23:31:12.340Z,48.01
2018-09-11T23:33:40.658Z,47.25
2018-09-11T23:36:08.946Z,48.11
2018-09-11T23:38:37.295Z,47.76
2018-09-11T23:41:05.699Z,48.09
2018-09-11T23:43:33.967Z,48.11
2018-09-11T23:46:02.223Z,48.14
2018-09-11T23:48:30.507Z,47.26
2018-09-11T23:50:58.771Z,48.11
2018-09-11T23:53:27.067Z,47.53
2018-09-11T23:55:55.319Z,47.33
2018-09-11T23:58:23.600Z,47.12
